sensor_id;sensor_type;location;lat;lon;timestamp;temperature;humidity
20650;DHT22;10484;48.736;9.332;2023-02-28T00:00:17;0.90;1.00
20650;DHT22;10484;48.736;9.332;2023-02-28T00:02:43;0.90;1.00
20650;DHT22;10484;48.736;9.332;2023-02-28T00:05:11;0.90;1.00
20650;DHT22;10484;48.736;9.332;2023-02-28T00:07:37;0.90;1.00
20650;DHT22;10484;48.736;9.332;2023-02-28T00:10:04;0.80;1.00
20650;DHT22;10484;48.736;9.332;2023-02-28T00:12:32;0.80;1.00
20650;DHT22;10484;48.736;9.332;2023-02-28T00:14:57;0.80;1.00
20650;DHT22;10484;48.736;9.332;2023-02-28T00:17:23;0.80;1.00
20650;DHT22;10484;48.736;9.332;2023-02-28T00:19:49;0.80;1.00
20650;DHT22;10484;48.736;9.332;2023-02-28T00:22:17;0.80;1.00
20650;DHT22;10484;48.736;9.332;2023-02-28T00:24:43;0.80;1.00
20650;DHT22;10484;48.736;9.332;2023-02-28T00:27:08;0.80;1.00
20650;DHT22;10484;48.736;9.332;2023-02-28T00:29:34;0.70;1.00
20650;DHT22;10484;48.736;9.332;2023-02-28T00:32:00;0.80;1.00
20650;DHT22;10484;48.736;9.332;2023-02-28T00:34:26;0.70;1.00
20650;DHT22;10484;48.736;9.332;2023-02-28T00:36:51;0.70;1.00
20650;DHT22;10484;48.736;9.332;2023-02-28T00:39:17;0.70;1.00
20650;DHT22;10484;48.736;9.332;2023-02-28T00:41:43;0.60;1.00
20650;DHT22;10484;48.736;9.332;2023-02-28T00:44:08;0.60;1.00
20650;DHT22;10484;48.736;9.332;2023-02-28T00:46:34;0.60;1.00
20650;DHT22;10484;48.736;9.332;2023-02-28T00:49:00;0.50;1.00
20650;DHT22;10484;48.736;9.332;2023-02-28T00:51:25;0.50;1.00
20650;DHT22;10484;48.736;9.332;2023-02-28T00:53:51;0.50;1.00
20650;DHT22;10484;48.736;9.332;2023-02-28T00:56:16;0.50;1.00
20650;DHT22;10484;48.736;9.332;2023-02-28T00:58:42;0.50;1.00
20650;DHT22;10484;48.736;9.332;2023-02-28T01:01:08;0.50;1.00
20650;DHT22;10484;48.736;9.332;2023-02-28T01:03:33;0.50;1.00
20650;DHT22;10484;48.736;9.332;2023-02-28T01:05:59;0.60;1.00
20650;DHT22;10484;48.736;9.332;2023-02-28T01:08:24;0.50;1.00
20650;DHT22;10484;48.736;9.332;2023-02-28T01:10:51;0.40;1.00
20650;DHT22;10484;48.736;9.332;2023-02-28T01:13:17;0.40;1.00
20650;DHT22;10484;48.736;9.332;2023-02-28T01:15:50;0.40;1.00
20650;DHT22;10484;48.736;9.332;2023-02-28T01:18:16;0.40;1.00
20650;DHT22;10484;48.736;9.332;2023-02-28T01:20:42;0.30;1.00
20650;DHT22;10484;48.736;9.332;2023-02-28T01:23:08;0.30;1.00
20650;DHT22;10484;48.736;9.332;2023-02-28T01:25:35;0.30;1.00
20650;DHT22;10484;48.736;9.332;2023-02-28T01:28:01;0.30;1.00
20650;DHT22;10484;48.736;9.332;2023-02-28T01:30:27;0.30;1.00
20650;DHT22;10484;48.736;9.332;2023-02-28T01:32:52;0.30;1.00
20650;DHT22;10484;48.736;9.332;2023-02-28T01:35:19;0.30;1.00
20650;DHT22;10484;48.736;9.332;2023-02-28T01:37:44;0.30;1.00
20650;DHT22;10484;48.736;9.332;2023-02-28T01:40:10;0.30;1.00
20650;DHT22;10484;48.736;9.332;2023-02-28T01:42:36;0.30;1.00
20650;DHT22;10484;48.736;9.332;2023-02-28T01:45:22;0.30;1.00
20650;DHT22;10484;48.736;9.332;2023-02-28T01:47:50;0.20;1.00
20650;DHT22;10484;48.736;9.332;2023-02-28T01:50:19;0.30;1.00
20650;DHT22;10484;48.736;9.332;2023-02-28T01:52:47;0.20;1.00
20650;DHT22;10484;48.736;9.332;2023-02-28T01:55:15;0.20;1.00
20650;DHT22;10484;48.736;9.332;2023-02-28T01:57:51;0.10;1.00
20650;DHT22;10484;48.736;9.332;2023-02-28T02:00:21;0.20;1.00
20650;DHT22;10484;48.736;9.332;2023-02-28T02:02:51;0.20;1.00
20650;DHT22;10484;48.736;9.332;2023-02-28T02:05:27;0.10;1.00
20650;DHT22;10484;48.736;9.332;2023-02-28T02:08:00;0.20;1.00
20650;DHT22;10484;48.736;9.332;2023-02-28T02:10:33;0.20;1.00
20650;DHT22;10484;48.736;9.332;2023-02-28T02:13:28;0.20;1.00
20650;DHT22;10484;48.736;9.332;2023-02-28T02:18:46;0.20;1.00
20650;DHT22;10484;48.736;9.332;2023-02-28T02:24:13;0.10;1.00
20650;DHT22;10484;48.736;9.332;2023-02-28T02:32:20;0.10;1.00
20650;DHT22;10484;48.736;9.332;2023-02-28T02:38:14;0.10;1.00
20650;DHT22;10484;48.736;9.332;2023-02-28T02:40:57;0.10;1.00
20650;DHT22;10484;48.736;9.332;2023-02-28T02:43:30;0.10;1.00
20650;DHT22;10484;48.736;9.332;2023-02-28T02:46:08;0.10;1.00
20650;DHT22;10484;48.736;9.332;2023-02-28T02:48:38;0.10;1.00
20650;DHT22;10484;48.736;9.332;2023-02-28T02:51:09;0.00;1.00
20650;DHT22;10484;48.736;9.332;2023-02-28T02:56:58;0.00;1.00
20650;DHT22;10484;48.736;9.332;2023-02-28T02:59:25;0.10;1.00
20650;DHT22;10484;48.736;9.332;2023-02-28T03:01:56;0.10;1.00
20650;DHT22;10484;48.736;9.332;2023-02-28T03:04:24;0.00;1.00
20650;DHT22;10484;48.736;9.332;2023-02-28T03:06:53;0.00;1.00
20650;DHT22;10484;48.736;9.332;2023-02-28T03:09:22;0.00;1.00
20650;DHT22;10484;48.736;9.332;2023-02-28T03:11:49;0.00;1.00
20650;DHT22;10484;48.736;9.332;2023-02-28T03:17:14;0.10;1.00
20650;DHT22;10484;48.736;9.332;2023-02-28T03:22:51;0.00;1.00
20650;DHT22;10484;48.736;9.332;2023-02-28T03:30:58;-0.10;1.00
20650;DHT22;10484;48.736;9.332;2023-02-28T03:33:36;0.00;1.00
20650;DHT22;10484;48.736;9.332;2023-02-28T03:36:13;0.00;1.00
20650;DHT22;10484;48.736;9.332;2023-02-28T03:38:44;0.00;1.00
20650;DHT22;10484;48.736;9.332;2023-02-28T03:41:23;0.00;1.00
20650;DHT22;10484;48.736;9.332;2023-02-28T03:43:58;0.00;1.00
20650;DHT22;10484;48.736;9.332;2023-02-28T03:46:30;0.00;1.00
20650;DHT22;10484;48.736;9.332;2023-02-28T03:49:02;0.00;1.00
20650;DHT22;10484;48.736;9.332;2023-02-28T03:51:29;0.00;1.00
20650;DHT22;10484;48.736;9.332;2023-02-28T03:53:59;0.00;1.00
20650;DHT22;10484;48.736;9.332;2023-02-28T03:56:33;0.00;1.00
20650;DHT22;10484;48.736;9.332;2023-02-28T03:59:13;-0.10;1.00
20650;DHT22;10484;48.736;9.332;2023-02-28T04:01:48;-0.10;1.00
20650;DHT22;10484;48.736;9.332;2023-02-28T04:04:14;-0.10;1.00
20650;DHT22;10484;48.736;9.332;2023-02-28T04:06:41;-0.10;1.00
20650;DHT22;10484;48.736;9.332;2023-02-28T04:09:08;0.00;1.00
20650;DHT22;10484;48.736;9.332;2023-02-28T04:11:43;0.00;1.00
20650;DHT22;10484;48.736;9.332;2023-02-28T04:14:11;-0.10;1.00
20650;DHT22;10484;48.736;9.332;2023-02-28T04:16:39;-0.10;1.00
20650;DHT22;10484;48.736;9.332;2023-02-28T04:19:07;-0.10;1.00
20650;DHT22;10484;48.736;9.332;2023-02-28T04:21:38;-0.10;1.00
20650;DHT22;10484;48.736;9.332;2023-02-28T04:24:09;-0.10;1.00
20650;DHT22;10484;48.736;9.332;2023-02-28T04:26:39;-0.10;1.00
20650;DHT22;10484;48.736;9.332;2023-02-28T04:29:06;-0.10;1.00
20650;DHT22;10484;48.736;9.332;2023-02-28T04:31:32;-0.10;1.00
20650;DHT22;10484;48.736;9.332;2023-02-28T04:33:58;-0.10;1.00
20650;DHT22;10484;48.736;9.332;2023-02-28T04:36:24;-0.10;1.00
20650;DHT22;10484;48.736;9.332;2023-02-28T04:38:50;-0.20;1.00
20650;DHT22;10484;48.736;9.332;2023-02-28T04:41:16;-0.10;1.00
20650;DHT22;10484;48.736;9.332;2023-02-28T04:43:42;-0.10;1.00
20650;DHT22;10484;48.736;9.332;2023-02-28T04:46:08;-0.10;1.00
20650;DHT22;10484;48.736;9.332;2023-02-28T04:48:36;-0.10;1.00
20650;DHT22;10484;48.736;9.332;2023-02-28T04:51:04;-0.10;1.00
20650;DHT22;10484;48.736;9.332;2023-02-28T04:53:30;-0.10;1.00
20650;DHT22;10484;48.736;9.332;2023-02-28T04:55:57;-0.20;1.00
20650;DHT22;10484;48.736;9.332;2023-02-28T04:58:23;-0.20;1.00
20650;DHT22;10484;48.736;9.332;2023-02-28T05:00:52;-0.10;1.00
20650;DHT22;10484;48.736;9.332;2023-02-28T05:03:19;-0.10;1.00
20650;DHT22;10484;48.736;9.332;2023-02-28T05:05:46;-0.10;1.00
20650;DHT22;10484;48.736;9.332;2023-02-28T05:08:12;-0.10;1.00
20650;DHT22;10484;48.736;9.332;2023-02-28T05:10:37;-0.10;1.00
20650;DHT22;10484;48.736;9.332;2023-02-28T05:13:03;-0.10;1.00
20650;DHT22;10484;48.736;9.332;2023-02-28T05:15:28;-0.10;1.00
20650;DHT22;10484;48.736;9.332;2023-02-28T05:17:54;-0.10;1.00
20650;DHT22;10484;48.736;9.332;2023-02-28T05:20:19;0.00;1.00
20650;DHT22;10484;48.736;9.332;2023-02-28T05:22:46;-0.10;1.00
20650;DHT22;10484;48.736;9.332;2023-02-28T05:25:15;0.00;1.00
20650;DHT22;10484;48.736;9.332;2023-02-28T05:27:41;0.00;1.00
20650;DHT22;10484;48.736;9.332;2023-02-28T05:30:07;0.00;1.00
20650;DHT22;10484;48.736;9.332;2023-02-28T05:32:39;0.00;1.00
20650;DHT22;10484;48.736;9.332;2023-02-28T05:35:10;0.00;1.00
20650;DHT22;10484;48.736;9.332;2023-02-28T05:37:36;0.00;1.00
20650;DHT22;10484;48.736;9.332;2023-02-28T05:40:03;0.00;1.00
20650;DHT22;10484;48.736;9.332;2023-02-28T05:42:32;0.00;1.00
20650;DHT22;10484;48.736;9.332;2023-02-28T05:44:58;0.00;1.00
20650;DHT22;10484;48.736;9.332;2023-02-28T05:47:24;0.00;1.00
20650;DHT22;10484;48.736;9.332;2023-02-28T05:49:50;0.00;1.00
20650;DHT22;10484;48.736;9.332;2023-02-28T05:52:15;0.00;1.00
20650;DHT22;10484;48.736;9.332;2023-02-28T05:54:41;0.00;1.00
20650;DHT22;10484;48.736;9.332;2023-02-28T05:57:06;0.00;1.00
20650;DHT22;10484;48.736;9.332;2023-02-28T05:59:32;0.00;1.00
20650;DHT22;10484;48.736;9.332;2023-02-28T06:01:58;0.00;1.00
20650;DHT22;10484;48.736;9.332;2023-02-28T06:04:23;0.00;1.00
20650;DHT22;10484;48.736;9.332;2023-02-28T06:06:50;0.10;1.00
20650;DHT22;10484;48.736;9.332;2023-02-28T06:09:16;0.10;1.00
20650;DHT22;10484;48.736;9.332;2023-02-28T06:11:42;0.10;1.00
20650;DHT22;10484;48.736;9.332;2023-02-28T06:14:16;0.10;1.00
20650;DHT22;10484;48.736;9.332;2023-02-28T06:16:42;0.10;1.00
20650;DHT22;10484;48.736;9.332;2023-02-28T06:19:09;0.10;1.00
20650;DHT22;10484;48.736;9.332;2023-02-28T06:21:34;0.10;1.00
20650;DHT22;10484;48.736;9.332;2023-02-28T06:24:00;0.10;1.00
20650;DHT22;10484;48.736;9.332;2023-02-28T06:26:26;0.10;1.00
20650;DHT22;10484;48.736;9.332;2023-02-28T06:28:51;0.10;1.00
20650;DHT22;10484;48.736;9.332;2023-02-28T06:31:17;0.10;1.00
20650;DHT22;10484;48.736;9.332;2023-02-28T06:33:45;0.10;1.00
20650;DHT22;10484;48.736;9.332;2023-02-28T06:36:12;0.10;1.00
20650;DHT22;10484;48.736;9.332;2023-02-28T06:38:38;0.10;1.00
20650;DHT22;10484;48.736;9.332;2023-02-28T06:41:05;0.10;1.00
20650;DHT22;10484;48.736;9.332;2023-02-28T06:43:34;0.10;1.00
20650;DHT22;10484;48.736;9.332;2023-02-28T06:46:02;0.10;1.00
20650;DHT22;10484;48.736;9.332;2023-02-28T06:48:28;0.10;1.00
20650;DHT22;10484;48.736;9.332;2023-02-28T06:51:13;0.10;1.00
20650;DHT22;10484;48.736;9.332;2023-02-28T06:53:40;0.10;1.00
20650;DHT22;10484;48.736;9.332;2023-02-28T06:56:14;0.10;1.00
20650;DHT22;10484;48.736;9.332;2023-02-28T06:58:39;0.20;1.00
20650;DHT22;10484;48.736;9.332;2023-02-28T07:01:06;0.20;1.00
20650;DHT22;10484;48.736;9.332;2023-02-28T07:03:32;0.20;1.00
20650;DHT22;10484;48.736;9.332;2023-02-28T07:05:58;0.20;1.00
20650;DHT22;10484;48.736;9.332;2023-02-28T07:08:24;0.20;1.00
20650;DHT22;10484;48.736;9.332;2023-02-28T07:10:56;0.20;1.00
20650;DHT22;10484;48.736;9.332;2023-02-28T07:13:22;0.20;1.00
20650;DHT22;10484;48.736;9.332;2023-02-28T07:15:59;0.30;1.00
20650;DHT22;10484;48.736;9.332;2023-02-28T07:18:26;0.30;1.00
20650;DHT22;10484;48.736;9.332;2023-02-28T07:20:52;0.30;1.00
20650;DHT22;10484;48.736;9.332;2023-02-28T07:23:18;0.30;1.00
20650;DHT22;10484;48.736;9.332;2023-02-28T07:25:43;0.40;1.00
20650;DHT22;10484;48.736;9.332;2023-02-28T07:28:11;0.40;1.00
20650;DHT22;10484;48.736;9.332;2023-02-28T07:30:37;0.30;1.00
20650;DHT22;10484;48.736;9.332;2023-02-28T07:33:02;0.40;1.00
20650;DHT22;10484;48.736;9.332;2023-02-28T07:35:29;0.30;1.00
20650;DHT22;10484;48.736;9.332;2023-02-28T07:37:55;0.30;1.00
20650;DHT22;10484;48.736;9.332;2023-02-28T07:40:22;0.40;1.00
20650;DHT22;10484;48.736;9.332;2023-02-28T07:42:47;0.40;1.00
20650;DHT22;10484;48.736;9.332;2023-02-28T07:45:13;0.40;1.00
20650;DHT22;10484;48.736;9.332;2023-02-28T07:47:39;0.40;1.00
20650;DHT22;10484;48.736;9.332;2023-02-28T07:50:06;0.40;1.00
20650;DHT22;10484;48.736;9.332;2023-02-28T07:52:32;0.40;1.00
20650;DHT22;10484;48.736;9.332;2023-02-28T07:54:58;0.50;1.00
20650;DHT22;10484;48.736;9.332;2023-02-28T07:57:23;0.50;1.00
20650;DHT22;10484;48.736;9.332;2023-02-28T07:59:49;0.40;1.00
20650;DHT22;10484;48.736;9.332;2023-02-28T08:02:16;0.40;1.00
20650;DHT22;10484;48.736;9.332;2023-02-28T08:04:42;0.40;1.00
20650;DHT22;10484;48.736;9.332;2023-02-28T08:07:08;0.40;1.00
20650;DHT22;10484;48.736;9.332;2023-02-28T08:09:35;0.40;1.00
20650;DHT22;10484;48.736;9.332;2023-02-28T08:12:01;0.40;1.00
20650;DHT22;10484;48.736;9.332;2023-02-28T08:14:26;0.40;1.00
20650;DHT22;10484;48.736;9.332;2023-02-28T08:16:52;0.50;1.00
20650;DHT22;10484;48.736;9.332;2023-02-28T08:19:17;0.50;1.00
20650;DHT22;10484;48.736;9.332;2023-02-28T08:21:43;0.50;1.00
20650;DHT22;10484;48.736;9.332;2023-02-28T08:24:08;0.50;1.00
20650;DHT22;10484;48.736;9.332;2023-02-28T08:26:34;0.60;1.00
20650;DHT22;10484;48.736;9.332;2023-02-28T08:29:00;0.50;1.00
20650;DHT22;10484;48.736;9.332;2023-02-28T08:31:25;0.50;1.00
20650;DHT22;10484;48.736;9.332;2023-02-28T08:33:51;0.60;1.00
20650;DHT22;10484;48.736;9.332;2023-02-28T08:36:19;0.60;1.00
20650;DHT22;10484;48.736;9.332;2023-02-28T08:38:44;0.50;1.00
20650;DHT22;10484;48.736;9.332;2023-02-28T08:41:12;0.50;1.00
20650;DHT22;10484;48.736;9.332;2023-02-28T08:43:39;0.50;1.00
20650;DHT22;10484;48.736;9.332;2023-02-28T08:46:05;0.50;1.00
20650;DHT22;10484;48.736;9.332;2023-02-28T08:48:32;0.50;1.00
20650;DHT22;10484;48.736;9.332;2023-02-28T08:53:26;0.60;1.00
20650;DHT22;10484;48.736;9.332;2023-02-28T08:55:59;0.70;1.00
20650;DHT22;10484;48.736;9.332;2023-02-28T08:58:25;0.70;1.00
20650;DHT22;10484;48.736;9.332;2023-02-28T09:00:51;0.70;1.00
20650;DHT22;10484;48.736;9.332;2023-02-28T09:03:17;0.80;1.00
20650;DHT22;10484;48.736;9.332;2023-02-28T09:05:52;0.70;1.00
20650;DHT22;10484;48.736;9.332;2023-02-28T09:08:18;0.70;1.00
20650;DHT22;10484;48.736;9.332;2023-02-28T09:10:43;0.70;1.00
20650;DHT22;10484;48.736;9.332;2023-02-28T09:13:09;0.70;1.00
20650;DHT22;10484;48.736;9.332;2023-02-28T09:15:37;0.70;1.00
20650;DHT22;10484;48.736;9.332;2023-02-28T09:18:03;0.70;1.00
20650;DHT22;10484;48.736;9.332;2023-02-28T09:20:28;0.70;1.00
20650;DHT22;10484;48.736;9.332;2023-02-28T09:22:54;0.80;1.00
20650;DHT22;10484;48.736;9.332;2023-02-28T09:25:20;0.80;1.00
20650;DHT22;10484;48.736;9.332;2023-02-28T09:27:45;0.80;1.00
20650;DHT22;10484;48.736;9.332;2023-02-28T09:30:11;0.80;1.00
20650;DHT22;10484;48.736;9.332;2023-02-28T09:32:37;0.90;1.00
20650;DHT22;10484;48.736;9.332;2023-02-28T09:35:03;0.90;1.00
20650;DHT22;10484;48.736;9.332;2023-02-28T09:37:29;0.90;1.00
20650;DHT22;10484;48.736;9.332;2023-02-28T09:39:56;0.90;1.00
20650;DHT22;10484;48.736;9.332;2023-02-28T09:42:28;0.90;1.00
20650;DHT22;10484;48.736;9.332;2023-02-28T09:44:56;1.00;1.00
20650;DHT22;10484;48.736;9.332;2023-02-28T09:47:27;1.00;1.00
20650;DHT22;10484;48.736;9.332;2023-02-28T09:49:57;1.00;1.00
20650;DHT22;10484;48.736;9.332;2023-02-28T09:52:30;1.00;1.00
20650;DHT22;10484;48.736;9.332;2023-02-28T09:55:18;1.00;1.00
20650;DHT22;10484;48.736;9.332;2023-02-28T09:57:45;1.00;1.00
20650;DHT22;10484;48.736;9.332;2023-02-28T10:05:18;1.10;1.00
20650;DHT22;10484;48.736;9.332;2023-02-28T10:08:03;1.10;1.00
20650;DHT22;10484;48.736;9.332;2023-02-28T10:10:40;1.20;1.00
20650;DHT22;10484;48.736;9.332;2023-02-28T10:13:14;1.20;1.00
20650;DHT22;10484;48.736;9.332;2023-02-28T10:15:41;1.30;1.00
20650;DHT22;10484;48.736;9.332;2023-02-28T10:18:12;1.30;1.00
20650;DHT22;10484;48.736;9.332;2023-02-28T10:20:40;1.30;1.00
20650;DHT22;10484;48.736;9.332;2023-02-28T10:23:42;1.30;1.00
20650;DHT22;10484;48.736;9.332;2023-02-28T10:26:14;1.30;1.00
20650;DHT22;10484;48.736;9.332;2023-02-28T10:28:43;1.40;1.00
20650;DHT22;10484;48.736;9.332;2023-02-28T10:31:16;1.50;1.00
20650;DHT22;10484;48.736;9.332;2023-02-28T10:33:43;1.50;1.00
20650;DHT22;10484;48.736;9.332;2023-02-28T10:36:14;1.60;1.00
20650;DHT22;10484;48.736;9.332;2023-02-28T10:38:42;1.60;1.00
20650;DHT22;10484;48.736;9.332;2023-02-28T10:41:10;1.70;1.00
20650;DHT22;10484;48.736;9.332;2023-02-28T10:43:37;1.70;1.00
20650;DHT22;10484;48.736;9.332;2023-02-28T10:46:23;1.80;1.00
20650;DHT22;10484;48.736;9.332;2023-02-28T10:49:03;1.80;1.00
20650;DHT22;10484;48.736;9.332;2023-02-28T10:51:38;1.90;1.00
20650;DHT22;10484;48.736;9.332;2023-02-28T10:54:05;2.00;1.00
20650;DHT22;10484;48.736;9.332;2023-02-28T10:56:31;2.10;1.00
20650;DHT22;10484;48.736;9.332;2023-02-28T11:01:39;2.20;1.00
20650;DHT22;10484;48.736;9.332;2023-02-28T11:04:40;2.30;1.00
20650;DHT22;10484;48.736;9.332;2023-02-28T11:07:20;2.40;1.00
20650;DHT22;10484;48.736;9.332;2023-02-28T11:09:50;2.40;1.00
20650;DHT22;10484;48.736;9.332;2023-02-28T11:15:21;2.50;1.00
20650;DHT22;10484;48.736;9.332;2023-02-28T11:18:06;2.60;1.00
20650;DHT22;10484;48.736;9.332;2023-02-28T11:20:40;2.70;1.00
20650;DHT22;10484;48.736;9.332;2023-02-28T11:23:12;2.70;1.00
20650;DHT22;10484;48.736;9.332;2023-02-28T11:25:39;2.70;1.00
20650;DHT22;10484;48.736;9.332;2023-02-28T11:28:08;2.80;1.00
20650;DHT22;10484;48.736;9.332;2023-02-28T11:31:17;2.90;1.00
20650;DHT22;10484;48.736;9.332;2023-02-28T11:33:52;3.00;1.00
20650;DHT22;10484;48.736;9.332;2023-02-28T11:36:19;3.00;1.00
20650;DHT22;10484;48.736;9.332;2023-02-28T11:38:45;3.10;1.00
20650;DHT22;10484;48.736;9.332;2023-02-28T11:41:30;3.20;1.00
20650;DHT22;10484;48.736;9.332;2023-02-28T11:44:18;3.40;1.00
20650;DHT22;10484;48.736;9.332;2023-02-28T11:46:54;3.50;1.00
20650;DHT22;10484;48.736;9.332;2023-02-28T12:00:12;3.70;1.00
20650;DHT22;10484;48.736;9.332;2023-02-28T12:03:10;3.70;1.00
20650;DHT22;10484;48.736;9.332;2023-02-28T12:11:19;3.80;1.00
20650;DHT22;10484;48.736;9.332;2023-02-28T12:19:54;4.10;1.00
20650;DHT22;10484;48.736;9.332;2023-02-28T12:22:30;4.20;1.00
20650;DHT22;10484;48.736;9.332;2023-02-28T12:25:15;4.30;1.00
20650;DHT22;10484;48.736;9.332;2023-02-28T12:27:48;4.40;1.00
20650;DHT22;10484;48.736;9.332;2023-02-28T12:30:31;4.50;1.00
20650;DHT22;10484;48.736;9.332;2023-02-28T12:33:07;4.60;1.00
20650;DHT22;10484;48.736;9.332;2023-02-28T12:35:49;4.70;1.00
20650;DHT22;10484;48.736;9.332;2023-02-28T12:38:21;4.80;1.00
20650;DHT22;10484;48.736;9.332;2023-02-28T12:41:18;4.90;1.00
20650;DHT22;10484;48.736;9.332;2023-02-28T12:43:55;5.00;1.00
20650;DHT22;10484;48.736;9.332;2023-02-28T12:46:29;5.00;1.00
20650;DHT22;10484;48.736;9.332;2023-02-28T12:49:00;5.00;1.00
20650;DHT22;10484;48.736;9.332;2023-02-28T12:51:28;5.10;1.00
20650;DHT22;10484;48.736;9.332;2023-02-28T12:54:14;5.20;1.00
20650;DHT22;10484;48.736;9.332;2023-02-28T12:57:07;5.30;1.00
20650;DHT22;10484;48.736;9.332;2023-02-28T12:59:49;5.30;1.00
20650;DHT22;10484;48.736;9.332;2023-02-28T13:10:52;5.50;1.00
20650;DHT22;10484;48.736;9.332;2023-02-28T13:13:29;5.70;1.00
20650;DHT22;10484;48.736;9.332;2023-02-28T13:16:10;5.70;1.00
20650;DHT22;10484;48.736;9.332;2023-02-28T13:18:43;5.80;1.00
20650;DHT22;10484;48.736;9.332;2023-02-28T13:21:22;5.90;1.00
20650;DHT22;10484;48.736;9.332;2023-02-28T13:29:21;6.10;1.00
20650;DHT22;10484;48.736;9.332;2023-02-28T13:34:42;6.20;1.00
20650;DHT22;10484;48.736;9.332;2023-02-28T13:47:31;6.50;1.00
20650;DHT22;10484;48.736;9.332;2023-02-28T13:50:32;6.50;1.00
20650;DHT22;10484;48.736;9.332;2023-02-28T13:53:24;6.50;1.00
20650;DHT22;10484;48.736;9.332;2023-02-28T13:56:18;6.60;1.00
20650;DHT22;10484;48.736;9.332;2023-02-28T13:58:56;6.60;1.00
20650;DHT22;10484;48.736;9.332;2023-02-28T14:05:06;6.50;1.00
20650;DHT22;10484;48.736;9.332;2023-02-28T14:07:47;6.60;1.00
20650;DHT22;10484;48.736;9.332;2023-02-28T14:13:11;6.60;1.00
20650;DHT22;10484;48.736;9.332;2023-02-28T14:15:41;6.70;1.00
20650;DHT22;10484;48.736;9.332;2023-02-28T14:18:25;6.80;1.00
20650;DHT22;10484;48.736;9.332;2023-02-28T14:20:55;6.90;1.00
20650;DHT22;10484;48.736;9.332;2023-02-28T14:31:49;6.90;1.00
20650;DHT22;10484;48.736;9.332;2023-02-28T14:34:41;6.90;1.00
20650;DHT22;10484;48.736;9.332;2023-02-28T14:37:15;6.90;1.00
20650;DHT22;10484;48.736;9.332;2023-02-28T14:39:44;7.00;1.00
20650;DHT22;10484;48.736;9.332;2023-02-28T14:42:33;7.00;1.00
20650;DHT22;10484;48.736;9.332;2023-02-28T14:44:59;6.90;1.00
20650;DHT22;10484;48.736;9.332;2023-02-28T14:47:31;6.80;1.00
20650;DHT22;10484;48.736;9.332;2023-02-28T14:49:59;6.80;1.00
20650;DHT22;10484;48.736;9.332;2023-02-28T14:52:31;6.90;1.00
20650;DHT22;10484;48.736;9.332;2023-02-28T14:55:00;7.00;1.00
20650;DHT22;10484;48.736;9.332;2023-02-28T14:57:40;7.00;1.00
20650;DHT22;10484;48.736;9.332;2023-02-28T15:02:39;7.10;1.00
20650;DHT22;10484;48.736;9.332;2023-02-28T15:07:46;7.00;1.00
20650;DHT22;10484;48.736;9.332;2023-02-28T15:10:23;7.00;1.00
20650;DHT22;10484;48.736;9.332;2023-02-28T15:15:26;6.90;1.00
20650;DHT22;10484;48.736;9.332;2023-02-28T15:17:54;6.80;1.00
20650;DHT22;10484;48.736;9.332;2023-02-28T15:20:23;6.80;1.00
20650;DHT22;10484;48.736;9.332;2023-02-28T15:22:51;6.60;1.00
20650;DHT22;10484;48.736;9.332;2023-02-28T15:25:20;6.70;1.00
20650;DHT22;10484;48.736;9.332;2023-02-28T15:27:52;6.80;1.00
20650;DHT22;10484;48.736;9.332;2023-02-28T15:30:19;7.00;1.00
20650;DHT22;10484;48.736;9.332;2023-02-28T15:33:23;7.10;1.00
20650;DHT22;10484;48.736;9.332;2023-02-28T15:35:48;7.30;1.00
20650;DHT22;10484;48.736;9.332;2023-02-28T15:38:25;7.20;1.00
20650;DHT22;10484;48.736;9.332;2023-02-28T15:40:56;7.20;1.00
20650;DHT22;10484;48.736;9.332;2023-02-28T15:43:29;7.00;1.00
20650;DHT22;10484;48.736;9.332;2023-02-28T15:46:04;7.00;1.00
20650;DHT22;10484;48.736;9.332;2023-02-28T15:48:55;7.00;1.00
20650;DHT22;10484;48.736;9.332;2023-02-28T15:51:31;7.00;1.00
20650;DHT22;10484;48.736;9.332;2023-02-28T15:54:00;7.00;1.00
20650;DHT22;10484;48.736;9.332;2023-02-28T15:56:32;7.00;1.00
20650;DHT22;10484;48.736;9.332;2023-02-28T15:59:03;6.80;1.00
20650;DHT22;10484;48.736;9.332;2023-02-28T16:01:36;6.80;1.00
20650;DHT22;10484;48.736;9.332;2023-02-28T16:04:13;6.80;1.00
20650;DHT22;10484;48.736;9.332;2023-02-28T16:06:44;6.80;1.00
20650;DHT22;10484;48.736;9.332;2023-02-28T16:09:13;6.70;1.00
20650;DHT22;10484;48.736;9.332;2023-02-28T16:11:48;6.60;1.00
20650;DHT22;10484;48.736;9.332;2023-02-28T16:14:19;6.60;1.00
20650;DHT22;10484;48.736;9.332;2023-02-28T16:16:48;6.60;1.00
20650;DHT22;10484;48.736;9.332;2023-02-28T16:19:14;6.60;1.00
20650;DHT22;10484;48.736;9.332;2023-02-28T16:21:39;6.60;1.00
20650;DHT22;10484;48.736;9.332;2023-02-28T16:24:05;6.70;1.00
20650;DHT22;10484;48.736;9.332;2023-02-28T16:26:32;6.70;1.00
20650;DHT22;10484;48.736;9.332;2023-02-28T16:29:00;6.60;1.00
20650;DHT22;10484;48.736;9.332;2023-02-28T16:31:27;6.70;1.00
20650;DHT22;10484;48.736;9.332;2023-02-28T16:33:52;6.60;1.00
20650;DHT22;10484;48.736;9.332;2023-02-28T16:36:21;6.50;1.00
20650;DHT22;10484;48.736;9.332;2023-02-28T16:38:47;6.40;1.00
20650;DHT22;10484;48.736;9.332;2023-02-28T16:41:18;6.30;1.00
20650;DHT22;10484;48.736;9.332;2023-02-28T16:43:46;6.30;1.00
20650;DHT22;10484;48.736;9.332;2023-02-28T16:46:13;6.20;1.00
20650;DHT22;10484;48.736;9.332;2023-02-28T16:48:39;6.20;1.00
20650;DHT22;10484;48.736;9.332;2023-02-28T16:51:08;6.00;1.00
20650;DHT22;10484;48.736;9.332;2023-02-28T16:53:33;6.10;1.00
20650;DHT22;10484;48.736;9.332;2023-02-28T16:56:00;6.10;1.00
20650;DHT22;10484;48.736;9.332;2023-02-28T16:58:27;6.20;1.00
20650;DHT22;10484;48.736;9.332;2023-02-28T17:00:53;6.30;1.00
20650;DHT22;10484;48.736;9.332;2023-02-28T17:03:26;6.20;1.00
20650;DHT22;10484;48.736;9.332;2023-02-28T17:05:52;6.20;1.00
20650;DHT22;10484;48.736;9.332;2023-02-28T17:08:18;6.10;1.00
20650;DHT22;10484;48.736;9.332;2023-02-28T17:10:44;6.10;1.00
20650;DHT22;10484;48.736;9.332;2023-02-28T17:13:09;5.90;1.00
20650;DHT22;10484;48.736;9.332;2023-02-28T17:15:36;5.90;1.00
20650;DHT22;10484;48.736;9.332;2023-02-28T17:18:02;5.80;1.00
20650;DHT22;10484;48.736;9.332;2023-02-28T17:20:28;5.90;1.00
20650;DHT22;10484;48.736;9.332;2023-02-28T17:22:55;5.80;1.00
20650;DHT22;10484;48.736;9.332;2023-02-28T17:25:23;5.80;1.00
20650;DHT22;10484;48.736;9.332;2023-02-28T17:27:49;5.70;1.00
20650;DHT22;10484;48.736;9.332;2023-02-28T17:30:24;5.70;1.00
20650;DHT22;10484;48.736;9.332;2023-02-28T17:32:53;5.70;1.00
20650;DHT22;10484;48.736;9.332;2023-02-28T17:35:19;5.70;1.00
20650;DHT22;10484;48.736;9.332;2023-02-28T17:37:45;5.60;1.00
20650;DHT22;10484;48.736;9.332;2023-02-28T17:40:21;5.50;1.00
20650;DHT22;10484;48.736;9.332;2023-02-28T17:42:47;5.60;1.00
20650;DHT22;10484;48.736;9.332;2023-02-28T17:45:13;5.50;1.00
20650;DHT22;10484;48.736;9.332;2023-02-28T17:47:40;5.50;1.00
20650;DHT22;10484;48.736;9.332;2023-02-28T17:50:15;5.40;1.00
20650;DHT22;10484;48.736;9.332;2023-02-28T17:52:41;5.30;1.00
20650;DHT22;10484;48.736;9.332;2023-02-28T17:55:08;5.30;1.00
20650;DHT22;10484;48.736;9.332;2023-02-28T17:57:33;5.30;1.00
20650;DHT22;10484;48.736;9.332;2023-02-28T17:59:59;5.30;1.00
20650;DHT22;10484;48.736;9.332;2023-02-28T18:02:24;5.20;1.00
20650;DHT22;10484;48.736;9.332;2023-02-28T18:04:52;5.20;1.00
20650;DHT22;10484;48.736;9.332;2023-02-28T18:07:19;5.10;1.00
20650;DHT22;10484;48.736;9.332;2023-02-28T18:09:46;5.10;1.00
20650;DHT22;10484;48.736;9.332;2023-02-28T18:12:12;5.10;1.00